createdAt,value
2022-11-29T00:00:26.402Z,101187.63
2022-11-29T00:03:30.136Z,101186.69
2022-11-29T00:06:35.202Z,101193.69
2022-11-29T00:09:39.343Z,101193.84
2022-11-29T00:12:41.983Z,101180.81
2022-11-29T00:15:44.627Z,101185.22
2022-11-29T00:18:50.096Z,101185.94
2022-11-29T00:21:52.757Z,101185.00
2022-11-29T00:24:56.781Z,101188.56
2022-11-29T00:27:59.393Z,101186.19
2022-11-29T00:31:02.449Z,101190.38
2022-11-29T00:34:06.873Z,101190.41
2022-11-29T00:37:09.521Z,101189.63
2022-11-29T00:40:14.020Z,101189.53
2022-11-29T00:43:16.659Z,101192.13
2022-11-29T00:46:19.368Z,101196.59
2022-11-29T00:49:22.032Z,101191.22
2022-11-29T00:52:24.672Z,101188.66
2022-11-29T00:55:28.656Z,101183.50
2022-11-29T00:58:33.336Z,101180.00
2022-11-29T01:01:35.998Z,101182.59
2022-11-29T01:04:38.854Z,101186.84
2022-11-29T01:07:41.511Z,101185.19
2022-11-29T01:10:45.677Z,101186.28
2022-11-29T01:13:49.792Z,101183.00
2022-11-29T01:16:52.449Z,101177.84
2022-11-29T01:19:55.161Z,101184.09
2022-11-29T01:22:57.810Z,101184.97
2022-11-29T01:26:03.643Z,101185.81
2022-11-29T01:29:06.319Z,101198.19
2022-11-29T01:32:08.969Z,101190.50
2022-11-29T01:35:11.630Z,101192.59
2022-11-29T01:38:14.261Z,101197.75
2022-11-29T01:41:21.306Z,101201.06
2022-11-29T01:45:02.144Z,101194.44
2022-11-29T01:48:05.250Z,101199.47
2022-11-29T01:51:08.340Z,101204.94
2022-11-29T01:54:12.144Z,101203.88
2022-11-29T01:57:17.129Z,101203.00
2022-11-29T02:00:20.964Z,101201.28
2022-11-29T02:03:23.594Z,101203.09
2022-11-29T02:06:26.513Z,101203.00
2022-11-29T02:09:29.242Z,101212.78
2022-11-29T02:12:44.569Z,101213.78
2022-11-29T02:15:55.951Z,101213.75
2022-11-29T02:19:12.157Z,101206.47
2022-11-29T02:22:20.511Z,101207.47
2022-11-29T02:25:37.290Z,101206.06
2022-11-29T02:29:17.117Z,101205.28
2022-11-29T02:32:55.320Z,101210.31
2022-11-29T02:36:13.404Z,101203.91
2022-11-29T02:39:39.254Z,101214.34
2022-11-29T02:43:13.161Z,101216.38
2022-11-29T02:46:32.448Z,101219.13
2022-11-29T02:49:57.873Z,101219.00
2022-11-29T02:53:07.146Z,101223.00
2022-11-29T02:56:15.122Z,101220.00
2022-11-29T02:59:28.506Z,101229.44
2022-11-29T03:02:39.874Z,101219.22
2022-11-29T03:05:52.010Z,101224.22
2022-11-29T03:09:01.812Z,101231.22
2022-11-29T03:12:12.026Z,101232.72
2022-11-29T03:15:25.925Z,101237.59
2022-11-29T03:18:36.015Z,101238.97
2022-11-29T03:21:49.993Z,101239.31
2022-11-29T03:25:01.885Z,101243.81
2022-11-29T03:28:12.173Z,101247.44
2022-11-29T03:31:21.750Z,101244.91
2022-11-29T03:34:33.811Z,101244.78
2022-11-29T03:37:47.329Z,101246.53
2022-11-29T03:40:56.594Z,101254.22
2022-11-29T03:44:04.546Z,101257.75
2022-11-29T03:47:11.773Z,101255.97
2022-11-29T03:50:20.147Z,101260.38
2022-11-29T03:53:34.353Z,101256.91
2022-11-29T03:56:40.484Z,101258.66
2022-11-29T03:59:56.927Z,101259.44
2022-11-29T04:03:30.395Z,101259.59
2022-11-29T04:06:48.575Z,101258.56
2022-11-29T04:10:07.666Z,101257.72
2022-11-29T04:13:46.372Z,101268.31
2022-11-29T04:17:24.417Z,101259.53
2022-11-29T04:20:48.306Z,101264.91
2022-11-29T04:24:04.635Z,101278.84
2022-11-29T04:27:35.553Z,101274.78
2022-11-29T04:30:52.672Z,101278.16
2022-11-29T04:34:20.482Z,101273.03
2022-11-29T04:37:48.058Z,101285.13
2022-11-29T04:41:23.114Z,101286.91
2022-11-29T04:44:56.483Z,101286.94
2022-11-29T04:48:14.512Z,101297.41
2022-11-29T04:51:30.556Z,101307.16
2022-11-29T04:54:40.470Z,101304.50
2022-11-29T04:57:50.289Z,101310.69
2022-11-29T05:01:00.725Z,101316.91
2022-11-29T05:04:11.615Z,101321.25
2022-11-29T05:07:40.417Z,101321.13
2022-11-29T05:10:49.271Z,101320.19
2022-11-29T05:14:01.518Z,101325.41
2022-11-29T05:17:25.616Z,101330.78
2022-11-29T05:20:41.914Z,101332.81
2022-11-29T05:23:52.937Z,101335.28
2022-11-29T05:27:03.236Z,101327.38
2022-11-29T05:30:08.472Z,101343.19
2022-11-29T05:33:23.852Z,101336.31
2022-11-29T05:36:39.278Z,101336.22
2022-11-29T05:39:58.931Z,101336.19
2022-11-29T05:43:18.836Z,101336.25
2022-11-29T05:46:30.349Z,101341.44
2022-11-29T05:49:42.393Z,101344.09
2022-11-29T05:52:54.700Z,101356.44
2022-11-29T05:56:05.231Z,101359.00
2022-11-29T05:59:11.785Z,101364.94
2022-11-29T06:02:29.259Z,101359.78
2022-11-29T06:05:40.388Z,101370.59
2022-11-29T06:08:51.548Z,101364.53
2022-11-29T06:11:58.854Z,101375.84
2022-11-29T06:15:29.114Z,101376.56
2022-11-29T06:18:54.704Z,101379.16
2022-11-29T06:22:10.725Z,101377.41
2022-11-29T06:25:32.535Z,101379.13
2022-11-29T06:28:51.650Z,101387.00
2022-11-29T06:32:03.979Z,101389.13
2022-11-29T06:35:18.778Z,101398.50
2022-11-29T06:38:27.094Z,101403.78
2022-11-29T06:41:30.219Z,101406.44
2022-11-29T06:44:33.481Z,101409.88
2022-11-29T06:47:43.451Z,101412.56
2022-11-29T06:50:54.321Z,101425.78
2022-11-29T06:54:08.085Z,101419.69
2022-11-29T06:57:17.960Z,101419.63
2022-11-29T07:00:23.154Z,101423.91
2022-11-29T07:03:53.224Z,101422.97
2022-11-29T07:06:56.179Z,101430.84
2022-11-29T07:10:02.062Z,101437.88
2022-11-29T07:13:05.630Z,101437.06
2022-11-29T07:16:17.205Z,101432.66
2022-11-29T07:19:25.217Z,101438.63
2022-11-29T07:22:44.124Z,101449.66
2022-11-29T07:25:56.731Z,101446.97
2022-11-29T07:29:16.925Z,101451.09
2022-11-29T07:32:28.028Z,101455.44
2022-11-29T07:35:39.684Z,101457.22
2022-11-29T07:38:59.981Z,101456.31
2022-11-29T07:42:10.726Z,101462.44
2022-11-29T07:45:22.165Z,101459.72
2022-11-29T07:48:24.887Z,101458.13
2022-11-29T07:51:27.557Z,101457.31
2022-11-29T07:54:31.263Z,101461.47
2022-11-29T07:57:36.895Z,101473.78
2022-11-29T08:00:39.635Z,101477.31
2022-11-29T08:03:42.484Z,101477.28
2022-11-29T08:06:45.136Z,101485.09
2022-11-29T08:09:47.981Z,101480.72
2022-11-29T08:12:52.329Z,101484.41
2022-11-29T08:15:55.059Z,101486.88
2022-11-29T08:18:57.861Z,101478.97
2022-11-29T08:22:00.519Z,101479.84
2022-11-29T08:25:03.548Z,101478.06
2022-11-29T08:28:07.589Z,101480.56
2022-11-29T08:31:12.305Z,101486.72
2022-11-29T08:34:14.952Z,101485.84
2022-11-29T08:37:17.561Z,101484.06
2022-11-29T08:40:20.397Z,101495.69
2022-11-29T08:43:24.354Z,101495.69
2022-11-29T08:46:46.994Z,101495.63
2022-11-29T08:50:04.745Z,101491.16
2022-11-29T08:53:24.861Z,101497.34
2022-11-29T08:59:51.454Z,101505.22
2022-11-29T09:02:54.062Z,101499.97
2022-11-29T09:05:57.460Z,101502.88
2022-11-29T09:09:01.359Z,101502.31
2022-11-29T09:12:07.395Z,101500.03
2022-11-29T09:15:12.295Z,101512.31
2022-11-29T09:18:14.915Z,101517.53
2022-11-29T09:21:18.331Z,101513.31
2022-11-29T09:24:21.148Z,101516.75
2022-11-29T09:27:23.744Z,101525.81
2022-11-29T09:30:29.863Z,101529.44
2022-11-29T09:33:32.516Z,101529.09
2022-11-29T09:36:35.201Z,101535.25
2022-11-29T09:39:38.124Z,101546.72
2022-11-29T09:42:56.793Z,101540.31
2022-11-29T09:46:08.873Z,101548.19
2022-11-29T09:49:34.070Z,101550.75
2022-11-29T09:52:47.823Z,101550.75
2022-11-29T09:56:05.726Z,101548.03
2022-11-29T09:59:12.797Z,101550.06
2022-11-29T10:02:22.255Z,101552.72
2022-11-29T10:05:29.926Z,101546.41
2022-11-29T10:08:37.057Z,101542.88
2022-11-29T10:11:44.673Z,101543.78
2022-11-29T10:14:56.176Z,101534.78
2022-11-29T10:18:05.618Z,101539.06
2022-11-29T10:21:15.318Z,101542.78
2022-11-29T10:24:22.135Z,101543.63
2022-11-29T10:27:28.316Z,101550.47
2022-11-29T10:30:35.091Z,101548.00
2022-11-29T10:33:41.582Z,101557.78
2022-11-29T10:36:46.956Z,101555.75
2022-11-29T10:39:52.959Z,101547.69
2022-11-29T10:42:55.634Z,101549.69
2022-11-29T10:45:59.080Z,101547.69
2022-11-29T10:49:06.178Z,101551.19
2022-11-29T10:52:20.247Z,101547.56
2022-11-29T10:55:23.806Z,101562.53
2022-11-29T10:58:28.961Z,101547.59
2022-11-29T11:01:34.744Z,101546.59
2022-11-29T11:04:47.064Z,101547.41
2022-11-29T11:07:58.306Z,101550.25
2022-11-29T11:11:03.046Z,101549.16
2022-11-29T11:14:17.832Z,101551.91
2022-11-29T11:17:26.264Z,101551.00
2022-11-29T11:20:32.846Z,101549.13
2022-11-29T11:23:42.597Z,101555.34
2022-11-29T11:26:46.842Z,101559.97
2022-11-29T11:29:53.632Z,101556.41
2022-11-29T11:33:09.564Z,101551.94
2022-11-29T11:36:22.464Z,101557.25
2022-11-29T11:39:25.267Z,101553.63
2022-11-29T11:42:40.362Z,101550.03
2022-11-29T11:45:43.415Z,101555.63
2022-11-29T11:48:46.670Z,101551.06
2022-11-29T11:51:51.463Z,101558.91
2022-11-29T11:54:56.695Z,101563.25
2022-11-29T11:58:09.039Z,101570.28
2022-11-29T12:01:18.088Z,101570.38
2022-11-29T12:04:23.486Z,101576.84
2022-11-29T12:07:59.728Z,101573.19
2022-11-29T12:11:07.026Z,101569.41
2022-11-29T12:14:20.532Z,101566.59
2022-11-29T12:17:31.879Z,101570.91
2022-11-29T12:20:41.306Z,101569.06
2022-11-29T12:23:53.380Z,101578.81
2022-11-29T12:27:01.581Z,101581.44
2022-11-29T12:30:12.556Z,101579.81
2022-11-29T12:33:27.989Z,101574.44
2022-11-29T12:36:40.802Z,101585.06
2022-11-29T12:39:58.152Z,101592.09
2022-11-29T12:43:10.693Z,101583.47
2022-11-29T12:46:21.904Z,101594.03
2022-11-29T12:49:30.337Z,101593.16
2022-11-29T12:52:42.954Z,101602.75
2022-11-29T12:55:54.461Z,101600.19
2022-11-29T12:59:23.223Z,101592.19
2022-11-29T13:02:35.804Z,101605.28
2022-11-29T13:05:47.061Z,101604.41
2022-11-29T13:09:00.799Z,101622.06
2022-11-29T13:12:14.161Z,101611.47
2022-11-29T13:15:19.603Z,101614.13
2022-11-29T13:18:26.617Z,101616.88
2022-11-29T13:21:35.224Z,101617.03
2022-11-29T13:24:43.201Z,101615.25
2022-11-29T13:27:58.282Z,101617.75
2022-11-29T13:31:04.145Z,101614.19
2022-11-29T13:34:10.825Z,101623.03
2022-11-29T13:37:19.893Z,101625.63
2022-11-29T13:40:32.777Z,101620.34
2022-11-29T13:43:43.419Z,101624.97
2022-11-29T13:46:53.593Z,101622.34
2022-11-29T13:49:58.472Z,101624.00
2022-11-29T13:53:05.623Z,101625.69
2022-11-29T13:56:08.280Z,101625.72
2022-11-29T13:59:20.035Z,101622.38
2022-11-29T14:02:29.377Z,101634.72
2022-11-29T14:05:39.375Z,101622.28
2022-11-29T14:09:18.257Z,101629.34
2022-11-29T14:12:39.436Z,101632.84
2022-11-29T14:15:44.062Z,101634.47
2022-11-29T14:18:51.007Z,101631.91
2022-11-29T14:22:21.807Z,101641.47
2022-11-29T14:28:49.581Z,101638.03
2022-11-29T14:31:56.806Z,101637.97
2022-11-29T14:35:09.209Z,101643.47
2022-11-29T14:38:19.296Z,101650.41
2022-11-29T14:41:29.842Z,101645.91
2022-11-29T14:44:34.102Z,101648.63
2022-11-29T14:47:48.743Z,101650.41
2022-11-29T14:51:08.570Z,101652.94
2022-11-29T14:54:18.245Z,101653.91
2022-11-29T14:58:06.105Z,101653.91
2022-11-29T15:01:11.045Z,101655.72
2022-11-29T15:04:15.461Z,101655.97
2022-11-29T15:07:24.633Z,101659.28
2022-11-29T15:10:32.622Z,101660.13
2022-11-29T15:13:40.068Z,101661.88
2022-11-29T15:16:59.089Z,101654.69
2022-11-29T15:20:32.086Z,101654.97
2022-11-29T15:23:42.367Z,101664.59
2022-11-29T15:26:56.476Z,101669.00
2022-11-29T15:29:59.861Z,101675.16
2022-11-29T15:33:05.646Z,101683.16
2022-11-29T15:36:20.157Z,101682.09
2022-11-29T15:39:28.887Z,101687.50
2022-11-29T15:42:40.711Z,101681.34
2022-11-29T15:45:48.437Z,101697.19
2022-11-29T15:48:51.133Z,101690.16
2022-11-29T15:51:58.629Z,101690.91
2022-11-29T15:55:04.203Z,101696.34
2022-11-29T15:58:09.047Z,101697.22
2022-11-29T16:01:19.779Z,101693.63
2022-11-29T16:04:24.310Z,101702.47
2022-11-29T16:07:32.173Z,101698.06
2022-11-29T16:10:36.966Z,101695.44
2022-11-29T16:13:43.043Z,101701.63
2022-11-29T16:16:47.695Z,101699.78
2022-11-29T16:19:50.454Z,101700.78
2022-11-29T16:23:12.279Z,101705.03
2022-11-29T16:26:19.783Z,101712.00
2022-11-29T16:29:27.952Z,101706.81
2022-11-29T16:32:32.606Z,101712.88
2022-11-29T16:35:36.241Z,101720.84
2022-11-29T16:38:45.945Z,101719.94
2022-11-29T16:42:03.506Z,101722.75
2022-11-29T16:45:34.558Z,101726.22
2022-11-29T16:48:38.333Z,101725.31
2022-11-29T16:51:48.176Z,101727.94
2022-11-29T16:54:52.219Z,101731.41
2022-11-29T16:57:54.952Z,101733.16
2022-11-29T17:00:57.685Z,101734.94
2022-11-29T17:04:01.320Z,101744.63
2022-11-29T17:07:06.616Z,101747.22
2022-11-29T17:10:17.824Z,101751.59
2022-11-29T17:13:20.391Z,101750.72
2022-11-29T17:16:25.019Z,101749.91
2022-11-29T17:19:30.513Z,101750.75
2022-11-29T17:22:33.153Z,101759.59
2022-11-29T17:25:37.362Z,101756.97
2022-11-29T17:28:41.009Z,101764.97
2022-11-29T17:31:44.848Z,101766.59
2022-11-29T17:34:47.728Z,101767.56
2022-11-29T17:37:50.620Z,101773.72
2022-11-29T17:40:54.585Z,101773.69
2022-11-29T17:43:58.319Z,101776.34
2022-11-29T17:47:00.894Z,101776.59
2022-11-29T17:50:03.608Z,101775.59
2022-11-29T17:53:06.597Z,101778.97
2022-11-29T17:56:13.030Z,101773.91
2022-11-29T17:59:15.695Z,101773.84
2022-11-29T18:02:18.345Z,101782.81
2022-11-29T18:05:21.069Z,101784.41
2022-11-29T18:08:23.721Z,101784.34
2022-11-29T18:11:30.625Z,101786.06
2022-11-29T18:14:34.072Z,101784.28
2022-11-29T18:17:36.705Z,101784.28
2022-11-29T18:20:39.311Z,101788.94
2022-11-29T18:23:43.283Z,101795.03
2022-11-29T18:26:47.623Z,101796.72
2022-11-29T18:29:50.613Z,101799.34
2022-11-29T18:32:53.392Z,101802.00
2022-11-29T18:36:02.566Z,101802.81
2022-11-29T18:39:07.306Z,101804.78
2022-11-29T18:42:12.585Z,101809.13
2022-11-29T18:45:15.255Z,101804.72
2022-11-29T18:48:17.898Z,101805.53
2022-11-29T18:51:21.429Z,101809.19
2022-11-29T18:54:24.026Z,101808.22
2022-11-29T18:57:28.071Z,101811.72
2022-11-29T19:00:30.706Z,101813.34
2022-11-29T19:03:35.521Z,101810.75
2022-11-29T19:06:39.868Z,101822.97
2022-11-29T19:09:42.869Z,101815.25
2022-11-29T19:12:46.820Z,101817.81
2022-11-29T19:15:52.921Z,101823.94
2022-11-29T19:18:57.293Z,101828.38
2022-11-29T19:21:59.930Z,101830.13
2022-11-29T19:25:02.620Z,101830.13
2022-11-29T19:28:12.571Z,101825.66
2022-11-29T19:31:19.041Z,101829.28
2022-11-29T19:34:21.718Z,101828.38
2022-11-29T19:37:24.328Z,101828.31
2022-11-29T19:40:27.476Z,101824.84
2022-11-29T19:43:32.412Z,101827.47
2022-11-29T19:46:37.038Z,101822.22
2022-11-29T19:49:44.749Z,101825.81
2022-11-29T19:52:49.113Z,101827.44
2022-11-29T19:55:51.730Z,101823.09
2022-11-29T19:58:56.194Z,101818.66
2022-11-29T20:01:58.817Z,101833.84
2022-11-29T20:05:01.445Z,101832.81
2022-11-29T20:08:04.080Z,101831.88
2022-11-29T20:11:08.030Z,101833.66
2022-11-29T20:14:14.493Z,101831.84
2022-11-29T20:17:17.249Z,101831.91
2022-11-29T20:20:20.108Z,101834.59
2022-11-29T20:23:22.774Z,101840.72
2022-11-29T20:26:26.148Z,101844.16
2022-11-29T20:29:32.646Z,101846.00
2022-11-29T20:32:35.860Z,101838.88
2022-11-29T20:35:39.227Z,101844.22
2022-11-29T20:38:47.397Z,101843.25
2022-11-29T20:42:09.123Z,101846.06
2022-11-29T20:45:15.369Z,101846.91
2022-11-29T20:48:21.205Z,101851.31
2022-11-29T20:51:28.289Z,101833.66
2022-11-29T20:54:30.935Z,101842.47
2022-11-29T20:57:33.825Z,101847.69
2022-11-29T21:00:37.771Z,101852.16
2022-11-29T21:03:40.508Z,101864.47
2022-11-29T21:06:43.136Z,101863.63
2022-11-29T21:09:46.232Z,101854.81
2022-11-29T21:12:49.398Z,101862.78
2022-11-29T21:15:54.096Z,101853.91
2022-11-29T21:18:59.589Z,101859.09
2022-11-29T21:22:12.469Z,101851.22
2022-11-29T21:25:22.291Z,101852.09
2022-11-29T21:28:29.926Z,101858.25
2022-11-29T21:31:34.478Z,101862.75
2022-11-29T21:34:37.153Z,101864.59
2022-11-29T21:37:40.002Z,101863.69
2022-11-29T21:40:42.647Z,101865.41
2022-11-29T21:44:05.332Z,101868.88
2022-11-29T21:47:09.281Z,101863.59
2022-11-29T21:50:13.578Z,101865.31
2022-11-29T21:53:16.220Z,101869.75
2022-11-29T21:56:18.862Z,101868.88
2022-11-29T21:59:21.575Z,101872.34
2022-11-29T22:02:25.650Z,101869.75
2022-11-29T22:05:28.349Z,101869.72
2022-11-29T22:08:34.531Z,101877.66
2022-11-29T22:11:37.394Z,101876.75
2022-11-29T22:14:40.006Z,101886.47
2022-11-29T22:17:43.961Z,101878.53
2022-11-29T22:20:47.219Z,101890.97
2022-11-29T22:23:49.799Z,101890.03
2022-11-29T22:26:53.878Z,101884.72
2022-11-29T22:29:56.524Z,101889.09
2022-11-29T22:33:00.462Z,101891.94
2022-11-29T22:36:04.709Z,101884.72
2022-11-29T22:39:08.781Z,101886.53
2022-11-29T22:42:11.505Z,101890.00
2022-11-29T22:45:14.124Z,101882.88
2022-11-29T22:48:18.090Z,101888.22
2022-11-29T22:51:22.400Z,101889.16
2022-11-29T22:54:25.070Z,101890.91
2022-11-29T22:57:27.681Z,101888.22
2022-11-29T23:00:30.779Z,101895.19
2022-11-29T23:03:36.439Z,101898.75
2022-11-29T23:06:41.460Z,101898.75
2022-11-29T23:09:44.068Z,101899.72
2022-11-29T23:12:47.417Z,101898.78
2022-11-29T23:15:50.043Z,101898.75
2022-11-29T23:18:58.040Z,101901.44
2022-11-29T23:22:00.656Z,101897.13
2022-11-29T23:25:03.302Z,101904.16
2022-11-29T23:28:05.944Z,101904.13
2022-11-29T23:31:08.544Z,101899.66
2022-11-29T23:34:12.524Z,101897.88
2022-11-29T23:37:15.146Z,101900.53
2022-11-29T23:40:18.051Z,101897.94
2022-11-29T23:43:21.584Z,101906.69
2022-11-29T23:46:25.477Z,101911.09
2022-11-29T23:49:29.442Z,101906.69
2022-11-29T23:52:32.086Z,101905.03
2022-11-29T23:55:34.707Z,101905.81
2022-11-29T23:58:37.938Z,101913.72
